createdAt,value
2022-12-31T00:02:18.592Z,81.32
2022-12-31T00:05:25.946Z,80.52
2022-12-31T00:08:34.692Z,80.01
2022-12-31T00:11:42.456Z,79.50
2022-12-31T00:14:48.668Z,78.91
2022-12-31T00:17:55.732Z,78.27
2022-12-31T00:21:02.289Z,78.35
2022-12-31T00:24:15.147Z,78.41
2022-12-31T00:27:22.593Z,77.77
2022-12-31T00:30:29.615Z,78.20
2022-12-31T00:33:35.717Z,78.43
2022-12-31T00:36:46.221Z,78.69
2022-12-31T00:39:55.210Z,77.85
2022-12-31T00:43:02.070Z,77.43
2022-12-31T00:46:10.293Z,77.40
2022-12-31T00:49:17.274Z,77.99
2022-12-31T00:52:23.532Z,79.33
2022-12-31T00:55:34.539Z,81.02
2022-12-31T00:58:41.099Z,81.30
2022-12-31T01:01:48.099Z,80.71
2022-12-31T01:04:54.659Z,80.31
2022-12-31T01:08:01.804Z,79.92
2022-12-31T01:11:23.183Z,79.47
2022-12-31T01:14:32.863Z,79.28
2022-12-31T01:17:38.895Z,79.51
2022-12-31T01:20:47.639Z,79.20
2022-12-31T01:23:54.181Z,78.96
2022-12-31T01:27:03.747Z,78.93
2022-12-31T01:30:12.897Z,79.36
2022-12-31T01:33:19.814Z,78.93
2022-12-31T01:36:29.294Z,78.66
2022-12-31T01:39:36.180Z,78.48
2022-12-31T01:42:44.849Z,78.53
2022-12-31T01:45:57.388Z,78.08
2022-12-31T01:49:13.845Z,77.63
2022-12-31T01:52:30.219Z,77.53
2022-12-31T01:55:45.431Z,77.48
2022-12-31T01:58:59.807Z,77.93
2022-12-31T02:02:06.904Z,77.94
2022-12-31T02:05:26.221Z,77.85
2022-12-31T02:08:35.760Z,78.29
2022-12-31T02:11:47.305Z,78.62
2022-12-31T02:14:59.108Z,79.30
2022-12-31T02:18:19.433Z,79.45
2022-12-31T02:21:53.836Z,79.57
2022-12-31T02:25:52.162Z,79.87
2022-12-31T02:29:38.418Z,79.89
2022-12-31T02:33:08.897Z,79.97
2022-12-31T02:36:23.710Z,80.34
2022-12-31T02:39:33.204Z,80.44
2022-12-31T02:42:40.031Z,80.26
2022-12-31T02:45:53.722Z,80.45
2022-12-31T02:49:24.259Z,79.72
2022-12-31T02:52:51.043Z,79.84
2022-12-31T02:56:12.102Z,80.38
2022-12-31T02:59:41.872Z,80.97
2022-12-31T03:02:53.273Z,81.04
2022-12-31T03:06:06.778Z,80.72
2022-12-31T03:09:16.610Z,80.08
2022-12-31T03:12:41.193Z,80.34
2022-12-31T03:15:48.249Z,80.29
2022-12-31T03:19:06.570Z,80.43
2022-12-31T03:22:31.981Z,80.28
2022-12-31T03:25:38.686Z,79.73
2022-12-31T03:28:48.157Z,79.55
2022-12-31T03:31:54.482Z,79.38
2022-12-31T03:35:01.581Z,78.84
2022-12-31T03:38:11.692Z,78.65
2022-12-31T03:41:18.621Z,79.00
2022-12-31T03:44:24.998Z,78.65
2022-12-31T03:47:32.435Z,78.99
2022-12-31T03:50:39.170Z,78.96
2022-12-31T03:53:48.737Z,79.25
2022-12-31T03:56:59.887Z,79.39
2022-12-31T04:00:10.983Z,79.78
2022-12-31T04:03:17.139Z,80.41
2022-12-31T04:06:24.160Z,80.60
2022-12-31T04:09:32.838Z,81.32
2022-12-31T04:12:40.251Z,81.98
2022-12-31T04:15:46.403Z,82.33
2022-12-31T04:18:53.491Z,82.55
2022-12-31T04:21:59.578Z,82.91
2022-12-31T04:25:13.177Z,83.42
2022-12-31T04:28:19.347Z,82.97
2022-12-31T04:31:26.382Z,82.91
2022-12-31T04:34:32.968Z,83.06
2022-12-31T04:37:40.335Z,82.83
2022-12-31T04:41:01.583Z,82.75
2022-12-31T04:44:08.629Z,82.44
2022-12-31T04:47:18.772Z,81.80
2022-12-31T04:50:30.281Z,81.98
2022-12-31T04:53:36.518Z,81.67
2022-12-31T04:56:46.143Z,81.18
2022-12-31T04:59:52.237Z,81.01
2022-12-31T05:02:59.195Z,80.85
2022-12-31T05:06:08.510Z,80.47
2022-12-31T05:09:15.456Z,79.80
2022-12-31T05:12:24.279Z,79.82
2022-12-31T05:15:31.240Z,79.92
2022-12-31T05:18:37.822Z,80.29
2022-12-31T05:22:04.787Z,80.65
2022-12-31T05:25:12.462Z,81.21
2022-12-31T05:28:22.640Z,81.79
2022-12-31T05:31:28.946Z,81.76
2022-12-31T05:34:35.882Z,81.78
2022-12-31T05:37:42.385Z,81.56
2022-12-31T05:40:49.404Z,81.26
2022-12-31T05:43:58.120Z,80.97
2022-12-31T05:47:05.111Z,81.15
2022-12-31T05:50:12.950Z,81.10
2022-12-31T05:53:19.967Z,80.82
2022-12-31T05:56:26.067Z,81.05
2022-12-31T05:59:36.093Z,81.05
2022-12-31T06:02:42.313Z,80.30
2022-12-31T06:05:49.463Z,80.31
2022-12-31T06:08:55.977Z,80.31
2022-12-31T06:12:02.982Z,79.95
2022-12-31T06:15:13.421Z,79.77
2022-12-31T06:18:20.414Z,79.65
2022-12-31T06:21:26.952Z,79.87
2022-12-31T06:24:33.854Z,79.08
2022-12-31T06:27:39.958Z,78.90
2022-12-31T06:30:49.748Z,79.30
2022-12-31T06:33:57.426Z,79.26
2022-12-31T06:37:04.314Z,79.40
2022-12-31T06:40:12.780Z,79.44
2022-12-31T06:43:19.964Z,79.36
2022-12-31T06:46:28.707Z,79.52
2022-12-31T06:49:35.623Z,79.80
2022-12-31T06:52:41.788Z,79.43
2022-12-31T06:55:52.079Z,78.93
2022-12-31T06:58:59.538Z,78.83
2022-12-31T07:02:49.999Z,78.77
2022-12-31T07:06:09.053Z,78.72
2022-12-31T07:09:29.499Z,78.76
2022-12-31T07:13:10.404Z,79.00
2022-12-31T07:16:43.022Z,78.80
2022-12-31T07:20:05.957Z,78.51
2022-12-31T07:23:14.039Z,78.39
2022-12-31T07:26:48.689Z,78.79
2022-12-31T07:30:12.679Z,78.73
2022-12-31T07:33:53.722Z,78.67
2022-12-31T07:37:16.426Z,78.62
2022-12-31T07:40:37.519Z,78.67
2022-12-31T07:44:04.155Z,78.38
2022-12-31T07:47:24.685Z,78.50
2022-12-31T07:50:33.011Z,77.72
2022-12-31T07:53:42.263Z,77.87
2022-12-31T07:56:52.528Z,77.37
2022-12-31T08:00:10.911Z,76.87
2022-12-31T08:03:50.890Z,76.61
2022-12-31T08:07:14.688Z,76.37
2022-12-31T08:10:40.590Z,76.23
2022-12-31T08:13:48.400Z,76.03
2022-12-31T08:16:57.275Z,76.43
2022-12-31T08:20:04.570Z,75.79
2022-12-31T08:23:31.607Z,75.61
2022-12-31T08:26:56.886Z,75.06
2022-12-31T08:30:12.087Z,74.49
2022-12-31T08:33:32.124Z,72.72
2022-12-31T08:36:56.506Z,72.13
2022-12-31T08:40:27.232Z,72.86
2022-12-31T08:43:57.540Z,72.75
2022-12-31T08:47:20.519Z,73.28
2022-12-31T08:50:28.744Z,73.14
2022-12-31T08:53:36.165Z,72.16
2022-12-31T08:56:56.672Z,71.02
2022-12-31T09:00:14.699Z,70.10
2022-12-31T09:03:46.206Z,69.38
2022-12-31T09:07:03.436Z,68.42
2022-12-31T09:10:25.573Z,68.87
2022-12-31T09:14:00.462Z,70.42
2022-12-31T09:17:42.210Z,72.45
2022-12-31T09:20:49.595Z,73.75
2022-12-31T09:23:57.834Z,74.17
2022-12-31T09:27:25.428Z,74.57
2022-12-31T09:30:48.663Z,73.74
2022-12-31T09:34:09.889Z,73.43
2022-12-31T09:37:25.188Z,73.33
2022-12-31T09:41:15.858Z,73.01
2022-12-31T09:45:37.195Z,73.61
2022-12-31T09:49:49.319Z,73.75
2022-12-31T09:53:48.738Z,73.87
2022-12-31T09:57:47.670Z,73.98
2022-12-31T10:01:04.447Z,73.72
2022-12-31T10:04:55.062Z,73.61
2022-12-31T10:08:25.017Z,74.44
2022-12-31T10:12:05.838Z,74.48
2022-12-31T10:15:51.754Z,74.09
2022-12-31T10:19:56.361Z,73.66
2022-12-31T10:23:35.580Z,73.55
2022-12-31T10:27:04.180Z,72.87
2022-12-31T10:30:20.977Z,72.45
2022-12-31T10:33:47.892Z,72.31
2022-12-31T10:37:13.988Z,71.86
2022-12-31T10:40:48.146Z,71.61
2022-12-31T10:44:42.432Z,70.77
2022-12-31T10:48:35.671Z,70.68
2022-12-31T10:52:30.569Z,69.11
2022-12-31T10:56:33.310Z,68.76
2022-12-31T11:00:17.204Z,69.40
2022-12-31T11:04:10.655Z,69.55
2022-12-31T11:07:58.015Z,69.39
2022-12-31T11:11:34.832Z,69.60
2022-12-31T11:15:18.800Z,69.54
2022-12-31T11:18:43.748Z,69.11
2022-12-31T11:22:25.426Z,67.45
2022-12-31T11:26:05.057Z,67.37
2022-12-31T11:29:42.393Z,67.08
2022-12-31T11:33:20.209Z,65.89
2022-12-31T11:36:47.738Z,65.93
2022-12-31T11:40:18.358Z,65.64
2022-12-31T11:43:38.560Z,65.72
2022-12-31T11:47:06.827Z,65.15
2022-12-31T11:50:39.106Z,64.76
2022-12-31T11:54:27.270Z,64.59
2022-12-31T11:57:39.339Z,65.21
2022-12-31T12:00:59.323Z,65.21
2022-12-31T12:04:07.654Z,65.56
2022-12-31T12:07:18.683Z,66.18
2022-12-31T12:10:36.201Z,66.82
2022-12-31T12:13:42.756Z,66.54
2022-12-31T12:17:04.419Z,67.29
2022-12-31T12:20:24.511Z,67.46
2022-12-31T12:23:33.080Z,67.48
2022-12-31T12:26:42.278Z,67.72
2022-12-31T12:29:49.475Z,68.10
2022-12-31T12:33:04.978Z,67.87
2022-12-31T12:36:15.658Z,67.59
2022-12-31T12:39:28.259Z,67.71
2022-12-31T12:42:36.054Z,67.77
2022-12-31T12:45:52.372Z,67.64
2022-12-31T12:49:04.433Z,67.77
2022-12-31T12:52:57.709Z,68.20
2022-12-31T12:56:27.765Z,68.20
2022-12-31T13:00:09.575Z,67.73
2022-12-31T13:08:06.219Z,68.69
2022-12-31T13:11:34.376Z,68.55
2022-12-31T13:14:54.680Z,68.14
2022-12-31T13:18:22.297Z,68.12
2022-12-31T13:21:48.380Z,68.41
2022-12-31T13:25:10.483Z,68.58
2022-12-31T13:28:22.936Z,68.13
2022-12-31T13:31:39.384Z,68.33
2022-12-31T13:34:51.139Z,68.65
2022-12-31T13:38:08.489Z,68.47
2022-12-31T13:41:27.330Z,68.51
2022-12-31T13:44:44.981Z,68.61
2022-12-31T13:48:01.685Z,68.70
2022-12-31T13:51:21.178Z,68.54
2022-12-31T13:54:44.715Z,68.85
2022-12-31T13:58:06.086Z,68.98
2022-12-31T14:01:23.429Z,68.95
2022-12-31T14:04:42.342Z,68.78
2022-12-31T14:07:57.841Z,68.49
2022-12-31T14:11:23.842Z,68.98
2022-12-31T14:14:46.184Z,69.14
2022-12-31T14:18:08.981Z,68.66
2022-12-31T14:21:26.468Z,69.22
2022-12-31T14:24:48.341Z,69.38
2022-12-31T14:27:59.669Z,69.38
2022-12-31T14:31:26.619Z,69.35
2022-12-31T14:34:49.929Z,69.60
2022-12-31T14:38:10.514Z,69.90
2022-12-31T14:41:46.492Z,69.89
2022-12-31T14:45:18.599Z,70.60
2022-12-31T14:48:50.229Z,70.20
2022-12-31T14:51:58.988Z,70.22
2022-12-31T14:55:27.512Z,70.15
2022-12-31T14:58:39.055Z,70.20
2022-12-31T15:01:48.842Z,70.39
2022-12-31T15:05:19.329Z,70.46
2022-12-31T15:08:52.759Z,70.37
2022-12-31T15:12:27.052Z,70.60
2022-12-31T15:15:56.603Z,70.51
2022-12-31T15:20:00.448Z,70.75
2022-12-31T15:23:24.290Z,71.07
2022-12-31T15:26:35.366Z,71.17
2022-12-31T15:29:49.189Z,70.73
2022-12-31T15:33:04.050Z,70.70
2022-12-31T15:36:20.980Z,70.99
2022-12-31T15:39:46.241Z,71.01
2022-12-31T15:43:03.012Z,71.49
2022-12-31T15:46:20.479Z,70.68
2022-12-31T15:49:29.495Z,70.82
2022-12-31T15:52:48.138Z,71.04
2022-12-31T15:56:02.774Z,70.70
2022-12-31T15:59:18.899Z,70.94
2022-12-31T16:02:29.735Z,70.24
2022-12-31T16:05:38.988Z,70.33
2022-12-31T16:08:52.801Z,69.78
2022-12-31T16:12:12.932Z,69.28
2022-12-31T16:15:30.794Z,69.27
2022-12-31T16:18:43.130Z,68.87
2022-12-31T16:21:50.271Z,68.96
2022-12-31T16:25:29.719Z,68.50
2022-12-31T16:28:35.735Z,68.70
2022-12-31T16:31:45.872Z,69.09
2022-12-31T16:34:55.033Z,68.63
2022-12-31T16:38:18.162Z,68.98
2022-12-31T16:41:25.369Z,68.64
2022-12-31T16:44:35.063Z,68.52
2022-12-31T16:47:41.658Z,68.49
2022-12-31T16:50:52.644Z,68.90
2022-12-31T16:54:01.122Z,68.46
2022-12-31T16:57:13.308Z,68.28
2022-12-31T17:00:27.854Z,68.46
2022-12-31T17:03:49.721Z,68.34
2022-12-31T17:06:56.279Z,68.45
2022-12-31T17:10:16.374Z,68.22
2022-12-31T17:13:37.172Z,68.11
2022-12-31T17:17:03.158Z,68.24
2022-12-31T17:20:22.545Z,68.43
2022-12-31T17:23:37.333Z,68.43
2022-12-31T17:26:43.895Z,68.54
2022-12-31T17:29:51.176Z,68.43
2022-12-31T17:33:03.776Z,68.27
2022-12-31T17:36:25.283Z,68.31
2022-12-31T17:39:47.080Z,67.72
2022-12-31T17:42:54.069Z,67.84
2022-12-31T17:46:00.247Z,67.51
2022-12-31T17:49:16.351Z,66.92
2022-12-31T17:52:22.392Z,66.34
2022-12-31T17:55:32.335Z,65.35
2022-12-31T17:58:49.259Z,65.58
2022-12-31T18:01:56.406Z,65.54
2022-12-31T18:05:05.474Z,65.12
2022-12-31T18:08:12.482Z,64.98
2022-12-31T18:11:23.296Z,65.21
2022-12-31T18:14:30.435Z,65.18
2022-12-31T18:17:37.567Z,65.11
2022-12-31T18:20:47.745Z,65.08
2022-12-31T18:26:59.818Z,64.70
2022-12-31T18:30:07.043Z,64.50
2022-12-31T18:33:22.424Z,64.83
2022-12-31T18:36:32.549Z,64.55
2022-12-31T18:39:39.540Z,64.36
2022-12-31T18:42:46.706Z,64.61
2022-12-31T18:45:55.343Z,64.40
2022-12-31T18:49:01.731Z,64.26
2022-12-31T18:52:17.329Z,64.13
2022-12-31T18:55:33.243Z,64.05
2022-12-31T18:58:40.284Z,64.34
2022-12-31T19:01:46.481Z,64.05
2022-12-31T19:04:53.509Z,63.53
2022-12-31T19:08:02.726Z,63.83
2022-12-31T19:11:09.697Z,63.33
2022-12-31T19:14:21.927Z,63.56
2022-12-31T19:17:31.131Z,63.55
2022-12-31T19:20:37.722Z,63.05
2022-12-31T19:23:47.752Z,63.08
2022-12-31T19:26:54.460Z,62.79
2022-12-31T19:30:01.658Z,62.32
2022-12-31T19:33:07.938Z,62.38
2022-12-31T19:36:20.057Z,62.18
2022-12-31T19:39:28.821Z,62.14
2022-12-31T19:42:35.777Z,62.19
2022-12-31T19:45:44.284Z,62.56
2022-12-31T19:48:51.580Z,62.62
2022-12-31T19:51:57.785Z,63.36
2022-12-31T19:55:08.189Z,63.13
2022-12-31T19:58:21.825Z,63.60
2022-12-31T20:01:29.023Z,63.87
2022-12-31T20:04:35.631Z,63.68
2022-12-31T20:07:43.138Z,63.69
2022-12-31T20:10:51.833Z,64.67
2022-12-31T20:13:58.800Z,64.48
2022-12-31T20:17:05.192Z,64.67
2022-12-31T20:20:13.574Z,65.75
2022-12-31T20:23:20.598Z,65.66
2022-12-31T20:26:30.251Z,65.56
2022-12-31T20:29:36.735Z,65.60
2022-12-31T20:32:43.665Z,65.07
2022-12-31T20:35:50.041Z,65.73
2022-12-31T20:38:57.092Z,65.72
2022-12-31T20:42:05.933Z,65.48
2022-12-31T20:45:14.650Z,65.64
2022-12-31T20:48:20.836Z,65.47
2022-12-31T20:51:30.599Z,65.58
2022-12-31T20:54:37.513Z,65.95
2022-12-31T20:57:47.523Z,66.19
2022-12-31T21:00:56.193Z,66.49
2022-12-31T21:04:06.696Z,67.07
2022-12-31T21:07:13.309Z,66.71
2022-12-31T21:10:20.459Z,67.02
2022-12-31T21:13:29.303Z,67.15
2022-12-31T21:16:36.894Z,67.86
2022-12-31T21:19:43.125Z,67.35
2022-12-31T21:22:49.982Z,67.89
2022-12-31T21:25:56.049Z,67.51
2022-12-31T21:29:05.972Z,67.50
2022-12-31T21:32:12.091Z,67.39
2022-12-31T21:38:45.975Z,67.61
2022-12-31T21:41:56.038Z,67.80
2022-12-31T21:45:05.863Z,67.79
2022-12-31T21:48:25.215Z,67.92
2022-12-31T21:51:32.639Z,68.00
2022-12-31T21:54:51.840Z,67.93
2022-12-31T21:58:28.083Z,68.10
2022-12-31T22:01:39.940Z,67.93
2022-12-31T22:05:03.074Z,67.64
2022-12-31T22:08:11.203Z,67.58
2022-12-31T22:11:20.212Z,67.39
2022-12-31T22:14:27.148Z,67.48
2022-12-31T22:17:36.668Z,67.07
2022-12-31T22:20:44.233Z,67.21
2022-12-31T22:23:56.145Z,67.10
2022-12-31T22:27:29.579Z,66.96
2022-12-31T22:30:31.233Z,66.91
2022-12-31T22:33:41.029Z,66.67
2022-12-31T22:36:47.379Z,66.74
2022-12-31T22:39:56.066Z,66.51
2022-12-31T22:43:02.955Z,66.51
2022-12-31T22:46:14.543Z,66.30
2022-12-31T22:49:23.999Z,66.03
2022-12-31T22:52:31.144Z,66.21
2022-12-31T22:55:37.242Z,65.47
2022-12-31T22:58:44.720Z,65.50
2022-12-31T23:01:50.963Z,65.21
2022-12-31T23:05:15.278Z,65.47
2022-12-31T23:08:27.768Z,65.64
2022-12-31T23:11:46.212Z,65.54
2022-12-31T23:15:04.704Z,65.70
2022-12-31T23:18:24.254Z,65.60
2022-12-31T23:21:45.500Z,66.12
2022-12-31T23:24:52.503Z,65.89
2022-12-31T23:27:58.633Z,65.57
2022-12-31T23:31:09.669Z,64.60
2022-12-31T23:34:15.791Z,63.82
2022-12-31T23:37:25.447Z,63.19
2022-12-31T23:40:34.541Z,63.35
2022-12-31T23:43:41.623Z,63.34
2022-12-31T23:46:47.835Z,63.56
2022-12-31T23:49:54.928Z,63.40
2022-12-31T23:53:03.740Z,63.69
2022-12-31T23:56:23.045Z,63.83
2022-12-31T23:59:29.950Z,63.66
